sensor_id;sensor_type;location;lat;lon;timestamp;temperature;humidity
43089;DHT22;28709;52.030;5.652;2023-07-31T00:00:41;14.60;99.90
43089;DHT22;28709;52.030;5.652;2023-07-31T00:03:06;14.60;99.90
43089;DHT22;28709;52.030;5.652;2023-07-31T00:05:32;14.60;99.90
43089;DHT22;28709;52.030;5.652;2023-07-31T00:07:58;14.60;99.90
43089;DHT22;28709;52.030;5.652;2023-07-31T00:10:23;14.60;99.90
43089;DHT22;28709;52.030;5.652;2023-07-31T00:12:49;14.60;99.90
43089;DHT22;28709;52.030;5.652;2023-07-31T00:15:15;14.60;99.90
43089;DHT22;28709;52.030;5.652;2023-07-31T00:17:40;14.60;99.90
43089;DHT22;28709;52.030;5.652;2023-07-31T00:20:06;14.70;99.90
43089;DHT22;28709;52.030;5.652;2023-07-31T00:22:32;14.70;99.90
43089;DHT22;28709;52.030;5.652;2023-07-31T00:24:58;14.70;99.90
43089;DHT22;28709;52.030;5.652;2023-07-31T00:27:25;14.80;99.90
43089;DHT22;28709;52.030;5.652;2023-07-31T00:29:50;14.80;99.90
43089;DHT22;28709;52.030;5.652;2023-07-31T00:32:16;14.90;99.90
43089;DHT22;28709;52.030;5.652;2023-07-31T00:34:41;14.90;99.90
43089;DHT22;28709;52.030;5.652;2023-07-31T00:37:07;15.00;99.90
43089;DHT22;28709;52.030;5.652;2023-07-31T00:39:34;15.10;99.90
43089;DHT22;28709;52.030;5.652;2023-07-31T00:42:00;15.10;99.90
43089;DHT22;28709;52.030;5.652;2023-07-31T00:44:25;15.20;99.90
43089;DHT22;28709;52.030;5.652;2023-07-31T00:46:51;15.30;99.90
43089;DHT22;28709;52.030;5.652;2023-07-31T00:49:17;15.40;99.90
43089;DHT22;28709;52.030;5.652;2023-07-31T00:51:43;15.50;99.90
43089;DHT22;28709;52.030;5.652;2023-07-31T00:54:09;15.60;99.90
43089;DHT22;28709;52.030;5.652;2023-07-31T00:56:35;15.70;99.90
43089;DHT22;28709;52.030;5.652;2023-07-31T00:59:00;15.80;99.90
43089;DHT22;28709;52.030;5.652;2023-07-31T01:01:27;15.90;99.90
43089;DHT22;28709;52.030;5.652;2023-07-31T01:03:53;16.00;99.90
43089;DHT22;28709;52.030;5.652;2023-07-31T01:06:33;16.00;99.90
43089;DHT22;28709;52.030;5.652;2023-07-31T01:11:53;16.10;99.90
43089;DHT22;28709;52.030;5.652;2023-07-31T01:14:21;16.10;99.90
43089;DHT22;28709;52.030;5.652;2023-07-31T01:16:47;16.10;99.90
43089;DHT22;28709;52.030;5.652;2023-07-31T01:19:15;16.10;99.90
43089;DHT22;28709;52.030;5.652;2023-07-31T01:24:55;16.10;99.90
43089;DHT22;28709;52.030;5.652;2023-07-31T01:27:24;16.10;99.90
43089;DHT22;28709;52.030;5.652;2023-07-31T01:30:10;16.10;99.90
43089;DHT22;28709;52.030;5.652;2023-07-31T01:32:40;16.10;99.90
43089;DHT22;28709;52.030;5.652;2023-07-31T01:35:07;16.10;99.90
43089;DHT22;28709;52.030;5.652;2023-07-31T01:37:34;16.10;99.90
43089;DHT22;28709;52.030;5.652;2023-07-31T01:39:59;16.10;99.90
43089;DHT22;28709;52.030;5.652;2023-07-31T01:42:25;16.10;99.90
43089;DHT22;28709;52.030;5.652;2023-07-31T01:44:51;16.10;99.90
43089;DHT22;28709;52.030;5.652;2023-07-31T01:47:16;16.20;99.90
43089;DHT22;28709;52.030;5.652;2023-07-31T01:49:42;16.20;99.90
43089;DHT22;28709;52.030;5.652;2023-07-31T01:52:07;16.20;99.90
43089;DHT22;28709;52.030;5.652;2023-07-31T01:54:33;16.20;99.90
43089;DHT22;28709;52.030;5.652;2023-07-31T01:56:59;16.20;99.90
43089;DHT22;28709;52.030;5.652;2023-07-31T01:59:25;16.20;99.90
43089;DHT22;28709;52.030;5.652;2023-07-31T02:01:50;16.10;99.90
43089;DHT22;28709;52.030;5.652;2023-07-31T02:04:16;16.10;99.90
43089;DHT22;28709;52.030;5.652;2023-07-31T02:06:43;16.10;99.90
43089;DHT22;28709;52.030;5.652;2023-07-31T02:09:09;16.10;99.90
43089;DHT22;28709;52.030;5.652;2023-07-31T02:11:34;16.10;99.90
43089;DHT22;28709;52.030;5.652;2023-07-31T02:14:00;16.10;99.90
43089;DHT22;28709;52.030;5.652;2023-07-31T02:16:25;16.00;99.90
43089;DHT22;28709;52.030;5.652;2023-07-31T02:18:51;16.00;99.90
43089;DHT22;28709;52.030;5.652;2023-07-31T02:21:16;16.00;99.90
43089;DHT22;28709;52.030;5.652;2023-07-31T02:23:42;15.90;99.90
43089;DHT22;28709;52.030;5.652;2023-07-31T02:26:08;15.90;99.90
43089;DHT22;28709;52.030;5.652;2023-07-31T02:28:33;15.90;99.90
43089;DHT22;28709;52.030;5.652;2023-07-31T02:30:59;15.90;99.90
43089;DHT22;28709;52.030;5.652;2023-07-31T02:33:24;15.90;99.90
43089;DHT22;28709;52.030;5.652;2023-07-31T02:35:50;15.90;99.90
43089;DHT22;28709;52.030;5.652;2023-07-31T02:38:16;15.90;99.90
43089;DHT22;28709;52.030;5.652;2023-07-31T02:40:41;16.00;99.90
43089;DHT22;28709;52.030;5.652;2023-07-31T02:43:08;16.00;99.90
43089;DHT22;28709;52.030;5.652;2023-07-31T02:45:33;16.00;99.90
43089;DHT22;28709;52.030;5.652;2023-07-31T02:47:59;16.00;99.90
43089;DHT22;28709;52.030;5.652;2023-07-31T02:50:25;16.00;99.90
43089;DHT22;28709;52.030;5.652;2023-07-31T02:52:50;16.00;99.90
43089;DHT22;28709;52.030;5.652;2023-07-31T02:55:16;16.00;99.90
43089;DHT22;28709;52.030;5.652;2023-07-31T02:57:42;16.00;99.90
43089;DHT22;28709;52.030;5.652;2023-07-31T03:00:08;16.00;99.90
43089;DHT22;28709;52.030;5.652;2023-07-31T03:02:34;16.10;99.90
43089;DHT22;28709;52.030;5.652;2023-07-31T03:05:00;16.10;99.90
43089;DHT22;28709;52.030;5.652;2023-07-31T03:07:26;16.00;99.90
43089;DHT22;28709;52.030;5.652;2023-07-31T03:09:51;16.00;99.90
43089;DHT22;28709;52.030;5.652;2023-07-31T03:12:17;16.00;99.90
43089;DHT22;28709;52.030;5.652;2023-07-31T03:14:43;16.00;99.90
43089;DHT22;28709;52.030;5.652;2023-07-31T03:17:08;16.00;99.90
43089;DHT22;28709;52.030;5.652;2023-07-31T03:19:34;16.00;99.90
43089;DHT22;28709;52.030;5.652;2023-07-31T03:22:00;16.00;99.90
43089;DHT22;28709;52.030;5.652;2023-07-31T03:24:26;16.00;99.90
43089;DHT22;28709;52.030;5.652;2023-07-31T03:26:51;16.00;99.90
43089;DHT22;28709;52.030;5.652;2023-07-31T03:29:17;16.00;99.90
43089;DHT22;28709;52.030;5.652;2023-07-31T03:31:42;16.00;99.90
43089;DHT22;28709;52.030;5.652;2023-07-31T03:34:08;15.90;99.90
43089;DHT22;28709;52.030;5.652;2023-07-31T03:36:34;15.90;99.90
43089;DHT22;28709;52.030;5.652;2023-07-31T03:38:59;15.90;99.90
43089;DHT22;28709;52.030;5.652;2023-07-31T03:41:25;15.90;99.90
43089;DHT22;28709;52.030;5.652;2023-07-31T03:43:51;15.90;99.90
43089;DHT22;28709;52.030;5.652;2023-07-31T03:46:17;15.90;99.90
43089;DHT22;28709;52.030;5.652;2023-07-31T03:48:43;15.90;99.90
43089;DHT22;28709;52.030;5.652;2023-07-31T03:51:08;15.80;99.90
43089;DHT22;28709;52.030;5.652;2023-07-31T03:53:34;15.80;99.90
43089;DHT22;28709;52.030;5.652;2023-07-31T03:56:00;15.80;99.90
43089;DHT22;28709;52.030;5.652;2023-07-31T03:58:25;15.90;99.90
43089;DHT22;28709;52.030;5.652;2023-07-31T04:00:51;15.90;99.90
43089;DHT22;28709;52.030;5.652;2023-07-31T04:03:16;15.90;99.90
43089;DHT22;28709;52.030;5.652;2023-07-31T04:05:42;15.80;99.90
43089;DHT22;28709;52.030;5.652;2023-07-31T04:08:08;15.80;99.90
43089;DHT22;28709;52.030;5.652;2023-07-31T04:10:33;15.80;99.90
43089;DHT22;28709;52.030;5.652;2023-07-31T04:13:00;15.80;99.90
43089;DHT22;28709;52.030;5.652;2023-07-31T04:15:26;15.80;99.90
43089;DHT22;28709;52.030;5.652;2023-07-31T04:17:51;15.90;99.90
43089;DHT22;28709;52.030;5.652;2023-07-31T04:20:17;15.80;99.90
43089;DHT22;28709;52.030;5.652;2023-07-31T04:22:43;15.80;99.90
43089;DHT22;28709;52.030;5.652;2023-07-31T04:25:08;15.80;99.90
43089;DHT22;28709;52.030;5.652;2023-07-31T04:27:34;15.80;99.90
43089;DHT22;28709;52.030;5.652;2023-07-31T04:29:59;15.80;99.90
43089;DHT22;28709;52.030;5.652;2023-07-31T04:32:25;15.90;99.90
43089;DHT22;28709;52.030;5.652;2023-07-31T04:34:51;15.80;99.90
43089;DHT22;28709;52.030;5.652;2023-07-31T04:37:16;15.80;99.90
43089;DHT22;28709;52.030;5.652;2023-07-31T04:39:42;15.80;99.90
43089;DHT22;28709;52.030;5.652;2023-07-31T04:42:08;15.80;99.90
43089;DHT22;28709;52.030;5.652;2023-07-31T04:44:33;15.80;99.90
43089;DHT22;28709;52.030;5.652;2023-07-31T04:46:59;15.80;99.90
43089;DHT22;28709;52.030;5.652;2023-07-31T04:49:25;15.80;99.90
43089;DHT22;28709;52.030;5.652;2023-07-31T04:51:51;15.80;99.90
43089;DHT22;28709;52.030;5.652;2023-07-31T04:54:16;15.90;99.90
43089;DHT22;28709;52.030;5.652;2023-07-31T04:56:42;15.90;99.90
43089;DHT22;28709;52.030;5.652;2023-07-31T04:59:08;15.90;99.90
43089;DHT22;28709;52.030;5.652;2023-07-31T05:01:33;15.90;99.90
43089;DHT22;28709;52.030;5.652;2023-07-31T05:03:59;15.90;99.90
43089;DHT22;28709;52.030;5.652;2023-07-31T05:06:24;15.90;99.90
43089;DHT22;28709;52.030;5.652;2023-07-31T05:08:50;15.90;99.90
43089;DHT22;28709;52.030;5.652;2023-07-31T05:11:16;15.90;99.90
43089;DHT22;28709;52.030;5.652;2023-07-31T05:13:41;15.90;99.90
43089;DHT22;28709;52.030;5.652;2023-07-31T05:16:07;15.90;99.90
43089;DHT22;28709;52.030;5.652;2023-07-31T05:18:32;15.90;99.90
43089;DHT22;28709;52.030;5.652;2023-07-31T05:20:58;15.90;99.90
43089;DHT22;28709;52.030;5.652;2023-07-31T05:23:23;15.90;99.90
43089;DHT22;28709;52.030;5.652;2023-07-31T05:25:49;15.90;99.90
43089;DHT22;28709;52.030;5.652;2023-07-31T05:28:15;15.90;99.90
43089;DHT22;28709;52.030;5.652;2023-07-31T05:30:40;15.90;99.90
43089;DHT22;28709;52.030;5.652;2023-07-31T05:33:06;15.80;99.90
43089;DHT22;28709;52.030;5.652;2023-07-31T05:35:31;15.90;99.90
43089;DHT22;28709;52.030;5.652;2023-07-31T05:37:57;15.90;99.90
43089;DHT22;28709;52.030;5.652;2023-07-31T05:40:23;15.90;99.90
43089;DHT22;28709;52.030;5.652;2023-07-31T05:42:48;15.80;99.90
43089;DHT22;28709;52.030;5.652;2023-07-31T05:45:14;15.80;99.90
43089;DHT22;28709;52.030;5.652;2023-07-31T05:47:40;15.70;99.90
43089;DHT22;28709;52.030;5.652;2023-07-31T05:50:05;15.70;99.90
43089;DHT22;28709;52.030;5.652;2023-07-31T05:52:31;15.60;99.90
43089;DHT22;28709;52.030;5.652;2023-07-31T05:54:57;15.60;99.90
43089;DHT22;28709;52.030;5.652;2023-07-31T05:57:23;15.60;99.90
43089;DHT22;28709;52.030;5.652;2023-07-31T05:59:48;15.50;99.90
43089;DHT22;28709;52.030;5.652;2023-07-31T06:02:14;15.50;99.90
43089;DHT22;28709;52.030;5.652;2023-07-31T06:04:39;15.50;99.90
43089;DHT22;28709;52.030;5.652;2023-07-31T06:07:05;15.50;99.90
43089;DHT22;28709;52.030;5.652;2023-07-31T06:09:31;15.50;99.90
43089;DHT22;28709;52.030;5.652;2023-07-31T06:11:57;15.50;99.90
43089;DHT22;28709;52.030;5.652;2023-07-31T06:14:22;15.50;99.90
43089;DHT22;28709;52.030;5.652;2023-07-31T06:16:48;15.60;99.90
43089;DHT22;28709;52.030;5.652;2023-07-31T06:19:14;15.50;99.90
43089;DHT22;28709;52.030;5.652;2023-07-31T06:21:39;15.60;99.90
43089;DHT22;28709;52.030;5.652;2023-07-31T06:24:07;15.60;99.90
43089;DHT22;28709;52.030;5.652;2023-07-31T06:26:33;15.60;99.90
43089;DHT22;28709;52.030;5.652;2023-07-31T06:28:58;15.60;99.90
43089;DHT22;28709;52.030;5.652;2023-07-31T06:31:24;15.60;99.90
43089;DHT22;28709;52.030;5.652;2023-07-31T06:33:50;15.60;99.90
43089;DHT22;28709;52.030;5.652;2023-07-31T06:36:16;15.70;99.90
43089;DHT22;28709;52.030;5.652;2023-07-31T06:38:42;15.70;99.90
43089;DHT22;28709;52.030;5.652;2023-07-31T06:41:07;15.70;99.90
43089;DHT22;28709;52.030;5.652;2023-07-31T06:43:33;15.80;99.90
43089;DHT22;28709;52.030;5.652;2023-07-31T06:46:06;15.80;99.90
43089;DHT22;28709;52.030;5.652;2023-07-31T06:48:33;15.90;99.90
43089;DHT22;28709;52.030;5.652;2023-07-31T06:50:59;15.90;99.90
43089;DHT22;28709;52.030;5.652;2023-07-31T06:53:24;15.90;99.90
43089;DHT22;28709;52.030;5.652;2023-07-31T06:55:50;15.90;99.90
43089;DHT22;28709;52.030;5.652;2023-07-31T06:58:17;15.90;99.90
43089;DHT22;28709;52.030;5.652;2023-07-31T07:00:43;15.90;99.90
43089;DHT22;28709;52.030;5.652;2023-07-31T07:03:08;15.90;99.90
43089;DHT22;28709;52.030;5.652;2023-07-31T07:05:34;15.90;99.90
43089;DHT22;28709;52.030;5.652;2023-07-31T07:08:00;16.00;99.90
43089;DHT22;28709;52.030;5.652;2023-07-31T07:10:25;16.00;99.90
43089;DHT22;28709;52.030;5.652;2023-07-31T07:12:51;16.00;99.90
43089;DHT22;28709;52.030;5.652;2023-07-31T07:15:17;16.10;99.90
43089;DHT22;28709;52.030;5.652;2023-07-31T07:17:42;16.10;99.90
43089;DHT22;28709;52.030;5.652;2023-07-31T07:20:08;16.20;99.90
43089;DHT22;28709;52.030;5.652;2023-07-31T07:22:34;16.20;99.90
43089;DHT22;28709;52.030;5.652;2023-07-31T07:24:59;16.20;99.90
43089;DHT22;28709;52.030;5.652;2023-07-31T07:27:25;16.30;99.90
43089;DHT22;28709;52.030;5.652;2023-07-31T07:29:51;16.30;99.90
43089;DHT22;28709;52.030;5.652;2023-07-31T07:32:18;16.20;99.90
43089;DHT22;28709;52.030;5.652;2023-07-31T07:34:44;16.30;99.90
43089;DHT22;28709;52.030;5.652;2023-07-31T07:37:09;16.30;99.90
43089;DHT22;28709;52.030;5.652;2023-07-31T07:39:35;16.30;99.90
43089;DHT22;28709;52.030;5.652;2023-07-31T07:42:00;16.30;99.90
43089;DHT22;28709;52.030;5.652;2023-07-31T07:44:26;16.30;99.90
43089;DHT22;28709;52.030;5.652;2023-07-31T07:46:52;16.30;99.90
43089;DHT22;28709;52.030;5.652;2023-07-31T07:49:18;16.30;99.90
43089;DHT22;28709;52.030;5.652;2023-07-31T07:51:43;16.30;99.90
43089;DHT22;28709;52.030;5.652;2023-07-31T07:54:09;16.30;99.90
43089;DHT22;28709;52.030;5.652;2023-07-31T07:56:35;16.30;99.90
43089;DHT22;28709;52.030;5.652;2023-07-31T07:59:01;16.30;99.90
43089;DHT22;28709;52.030;5.652;2023-07-31T08:01:27;16.40;99.90
43089;DHT22;28709;52.030;5.652;2023-07-31T08:03:53;16.40;99.90
43089;DHT22;28709;52.030;5.652;2023-07-31T08:06:18;16.40;99.90
43089;DHT22;28709;52.030;5.652;2023-07-31T08:08:44;16.40;99.90
43089;DHT22;28709;52.030;5.652;2023-07-31T08:11:10;16.50;99.90
43089;DHT22;28709;52.030;5.652;2023-07-31T08:13:35;16.50;99.90
43089;DHT22;28709;52.030;5.652;2023-07-31T08:16:03;16.50;99.90
43089;DHT22;28709;52.030;5.652;2023-07-31T08:18:30;16.50;99.90
43089;DHT22;28709;52.030;5.652;2023-07-31T08:20:55;16.60;99.90
43089;DHT22;28709;52.030;5.652;2023-07-31T08:23:21;16.60;99.90
43089;DHT22;28709;52.030;5.652;2023-07-31T08:25:47;16.60;99.90
43089;DHT22;28709;52.030;5.652;2023-07-31T08:28:15;16.60;99.90
43089;DHT22;28709;52.030;5.652;2023-07-31T08:30:41;16.70;99.90
43089;DHT22;28709;52.030;5.652;2023-07-31T08:33:07;16.70;99.90
43089;DHT22;28709;52.030;5.652;2023-07-31T08:35:33;16.70;99.90
43089;DHT22;28709;52.030;5.652;2023-07-31T08:37:59;16.70;99.90
43089;DHT22;28709;52.030;5.652;2023-07-31T08:40:25;16.70;99.90
43089;DHT22;28709;52.030;5.652;2023-07-31T08:42:53;16.80;99.90
43089;DHT22;28709;52.030;5.652;2023-07-31T08:45:19;16.80;99.90
43089;DHT22;28709;52.030;5.652;2023-07-31T08:47:50;16.80;99.90
43089;DHT22;28709;52.030;5.652;2023-07-31T08:50:18;16.80;99.90
43089;DHT22;28709;52.030;5.652;2023-07-31T08:52:44;16.80;99.90
43089;DHT22;28709;52.030;5.652;2023-07-31T08:55:10;16.90;99.90
43089;DHT22;28709;52.030;5.652;2023-07-31T08:57:37;16.90;99.90
43089;DHT22;28709;52.030;5.652;2023-07-31T09:00:05;16.90;99.90
43089;DHT22;28709;52.030;5.652;2023-07-31T09:02:53;16.90;99.90
43089;DHT22;28709;52.030;5.652;2023-07-31T09:05:20;16.90;99.90
43089;DHT22;28709;52.030;5.652;2023-07-31T09:07:47;16.90;99.90
43089;DHT22;28709;52.030;5.652;2023-07-31T09:10:14;17.00;99.90
43089;DHT22;28709;52.030;5.652;2023-07-31T09:12:39;16.90;99.90
43089;DHT22;28709;52.030;5.652;2023-07-31T09:15:06;16.90;99.90
43089;DHT22;28709;52.030;5.652;2023-07-31T09:17:33;16.90;99.90
43089;DHT22;28709;52.030;5.652;2023-07-31T09:20:15;16.90;99.90
43089;DHT22;28709;52.030;5.652;2023-07-31T09:22:42;16.90;99.90
43089;DHT22;28709;52.030;5.652;2023-07-31T09:25:17;17.00;99.90
43089;DHT22;28709;52.030;5.652;2023-07-31T09:30:19;16.90;99.90
43089;DHT22;28709;52.030;5.652;2023-07-31T09:32:46;16.90;99.90
43089;DHT22;28709;52.030;5.652;2023-07-31T09:35:30;16.90;99.90
43089;DHT22;28709;52.030;5.652;2023-07-31T09:38:08;17.00;99.90
43089;DHT22;28709;52.030;5.652;2023-07-31T09:40:42;17.00;99.90
43089;DHT22;28709;52.030;5.652;2023-07-31T09:43:12;17.00;99.90
43089;DHT22;28709;52.030;5.652;2023-07-31T09:45:42;17.00;99.90
43089;DHT22;28709;52.030;5.652;2023-07-31T09:50:37;17.10;99.90
43089;DHT22;28709;52.030;5.652;2023-07-31T09:53:04;17.10;99.90
43089;DHT22;28709;52.030;5.652;2023-07-31T09:55:30;17.10;99.90
43089;DHT22;28709;52.030;5.652;2023-07-31T09:57:57;17.10;99.90
43089;DHT22;28709;52.030;5.652;2023-07-31T10:00:23;17.10;99.90
43089;DHT22;28709;52.030;5.652;2023-07-31T10:02:51;17.10;99.90
43089;DHT22;28709;52.030;5.652;2023-07-31T10:05:18;17.10;99.90
43089;DHT22;28709;52.030;5.652;2023-07-31T10:07:53;17.20;99.90
43089;DHT22;28709;52.030;5.652;2023-07-31T10:10:21;17.20;99.90
43089;DHT22;28709;52.030;5.652;2023-07-31T10:12:48;17.20;99.90
43089;DHT22;28709;52.030;5.652;2023-07-31T10:15:15;17.30;99.90
43089;DHT22;28709;52.030;5.652;2023-07-31T10:17:41;17.30;99.90
43089;DHT22;28709;52.030;5.652;2023-07-31T10:20:08;17.40;99.90
43089;DHT22;28709;52.030;5.652;2023-07-31T10:22:35;17.40;99.90
43089;DHT22;28709;52.030;5.652;2023-07-31T10:25:01;17.60;99.90
43089;DHT22;28709;52.030;5.652;2023-07-31T10:27:27;17.60;99.90
43089;DHT22;28709;52.030;5.652;2023-07-31T10:29:57;17.60;99.90
43089;DHT22;28709;52.030;5.652;2023-07-31T10:32:24;17.70;99.90
43089;DHT22;28709;52.030;5.652;2023-07-31T10:34:51;17.70;99.90
43089;DHT22;28709;52.030;5.652;2023-07-31T10:37:27;17.80;99.90
43089;DHT22;28709;52.030;5.652;2023-07-31T10:40:06;17.80;99.90
43089;DHT22;28709;52.030;5.652;2023-07-31T10:42:37;17.80;99.90
43089;DHT22;28709;52.030;5.652;2023-07-31T10:45:10;17.80;99.90
43089;DHT22;28709;52.030;5.652;2023-07-31T10:47:44;17.90;99.90
43089;DHT22;28709;52.030;5.652;2023-07-31T10:50:21;17.90;99.90
43089;DHT22;28709;52.030;5.652;2023-07-31T10:52:52;18.00;99.90
43089;DHT22;28709;52.030;5.652;2023-07-31T10:55:25;18.10;99.90
43089;DHT22;28709;52.030;5.652;2023-07-31T10:57:52;18.10;99.90
43089;DHT22;28709;52.030;5.652;2023-07-31T11:00:28;18.20;99.90
43089;DHT22;28709;52.030;5.652;2023-07-31T11:05:59;18.20;99.90
43089;DHT22;28709;52.030;5.652;2023-07-31T11:08:31;18.20;99.90
43089;DHT22;28709;52.030;5.652;2023-07-31T11:15:54;18.10;99.90
43089;DHT22;28709;52.030;5.652;2023-07-31T11:18:20;18.10;99.90
43089;DHT22;28709;52.030;5.652;2023-07-31T11:20:45;18.10;99.90
43089;DHT22;28709;52.030;5.652;2023-07-31T11:23:12;18.10;99.90
43089;DHT22;28709;52.030;5.652;2023-07-31T11:25:39;18.10;99.90
43089;DHT22;28709;52.030;5.652;2023-07-31T11:28:09;18.10;99.90
43089;DHT22;28709;52.030;5.652;2023-07-31T11:30:36;18.00;99.90
43089;DHT22;28709;52.030;5.652;2023-07-31T11:33:02;18.00;99.90
43089;DHT22;28709;52.030;5.652;2023-07-31T11:35:30;17.90;99.90
43089;DHT22;28709;52.030;5.652;2023-07-31T11:37:56;18.00;99.90
43089;DHT22;28709;52.030;5.652;2023-07-31T11:40:21;18.00;99.90
43089;DHT22;28709;52.030;5.652;2023-07-31T11:42:47;18.00;99.90
43089;DHT22;28709;52.030;5.652;2023-07-31T11:45:12;18.10;99.90
43089;DHT22;28709;52.030;5.652;2023-07-31T11:47:38;18.10;99.90
43089;DHT22;28709;52.030;5.652;2023-07-31T11:50:05;18.10;99.90
43089;DHT22;28709;52.030;5.652;2023-07-31T11:52:40;18.10;99.90
43089;DHT22;28709;52.030;5.652;2023-07-31T11:55:08;18.10;99.90
43089;DHT22;28709;52.030;5.652;2023-07-31T11:57:41;18.10;99.90
43089;DHT22;28709;52.030;5.652;2023-07-31T12:00:10;18.20;99.90
43089;DHT22;28709;52.030;5.652;2023-07-31T12:02:38;18.20;99.90
43089;DHT22;28709;52.030;5.652;2023-07-31T12:05:06;18.20;99.90
43089;DHT22;28709;52.030;5.652;2023-07-31T12:07:45;18.30;99.90
43089;DHT22;28709;52.030;5.652;2023-07-31T12:10:11;18.30;99.90
43089;DHT22;28709;52.030;5.652;2023-07-31T12:12:37;18.30;99.90
43089;DHT22;28709;52.030;5.652;2023-07-31T12:15:03;18.30;99.90
43089;DHT22;28709;52.030;5.652;2023-07-31T12:17:38;18.30;99.90
43089;DHT22;28709;52.030;5.652;2023-07-31T12:20:04;18.30;99.90
43089;DHT22;28709;52.030;5.652;2023-07-31T12:22:30;18.30;99.90
43089;DHT22;28709;52.030;5.652;2023-07-31T12:24:56;18.30;99.90
43089;DHT22;28709;52.030;5.652;2023-07-31T12:27:22;18.30;99.90
43089;DHT22;28709;52.030;5.652;2023-07-31T12:29:50;18.40;99.90
43089;DHT22;28709;52.030;5.652;2023-07-31T12:32:23;18.40;99.90
43089;DHT22;28709;52.030;5.652;2023-07-31T12:34:49;18.40;99.90
43089;DHT22;28709;52.030;5.652;2023-07-31T12:37:15;18.40;99.90
43089;DHT22;28709;52.030;5.652;2023-07-31T12:39:40;18.30;99.90
43089;DHT22;28709;52.030;5.652;2023-07-31T12:42:06;18.30;99.90
43089;DHT22;28709;52.030;5.652;2023-07-31T12:44:32;18.20;99.90
43089;DHT22;28709;52.030;5.652;2023-07-31T12:46:57;18.20;99.90
43089;DHT22;28709;52.030;5.652;2023-07-31T12:49:23;18.20;99.90
43089;DHT22;28709;52.030;5.652;2023-07-31T12:51:49;18.30;99.90
43089;DHT22;28709;52.030;5.652;2023-07-31T12:54:14;18.30;99.90
43089;DHT22;28709;52.030;5.652;2023-07-31T12:56:40;18.30;99.90
43089;DHT22;28709;52.030;5.652;2023-07-31T12:59:05;18.40;99.90
43089;DHT22;28709;52.030;5.652;2023-07-31T13:01:31;18.50;99.90
43089;DHT22;28709;52.030;5.652;2023-07-31T13:03:57;18.50;99.90
43089;DHT22;28709;52.030;5.652;2023-07-31T13:06:24;18.50;99.90
43089;DHT22;28709;52.030;5.652;2023-07-31T13:08:51;18.50;99.90
43089;DHT22;28709;52.030;5.652;2023-07-31T13:11:16;18.50;99.90
43089;DHT22;28709;52.030;5.652;2023-07-31T13:13:42;18.50;99.90
43089;DHT22;28709;52.030;5.652;2023-07-31T13:16:07;18.60;99.90
43089;DHT22;28709;52.030;5.652;2023-07-31T13:18:33;18.60;99.90
43089;DHT22;28709;52.030;5.652;2023-07-31T13:20:59;18.50;99.90
43089;DHT22;28709;52.030;5.652;2023-07-31T13:23:24;18.50;99.90
43089;DHT22;28709;52.030;5.652;2023-07-31T13:25:50;18.40;99.90
43089;DHT22;28709;52.030;5.652;2023-07-31T13:28:16;18.40;99.90
43089;DHT22;28709;52.030;5.652;2023-07-31T13:30:41;18.40;99.90
43089;DHT22;28709;52.030;5.652;2023-07-31T13:33:07;18.40;99.90
43089;DHT22;28709;52.030;5.652;2023-07-31T13:35:32;18.30;99.90
43089;DHT22;28709;52.030;5.652;2023-07-31T13:37:58;18.30;99.90
43089;DHT22;28709;52.030;5.652;2023-07-31T13:40:23;18.30;99.90
43089;DHT22;28709;52.030;5.652;2023-07-31T13:42:49;18.40;99.90
43089;DHT22;28709;52.030;5.652;2023-07-31T13:45:15;18.40;99.90
43089;DHT22;28709;52.030;5.652;2023-07-31T13:47:40;18.40;99.90
43089;DHT22;28709;52.030;5.652;2023-07-31T13:50:06;18.30;99.90
43089;DHT22;28709;52.030;5.652;2023-07-31T13:52:32;18.40;99.90
43089;DHT22;28709;52.030;5.652;2023-07-31T13:54:58;18.40;99.90
43089;DHT22;28709;52.030;5.652;2023-07-31T13:57:23;18.40;99.90
43089;DHT22;28709;52.030;5.652;2023-07-31T13:59:49;18.40;99.90
43089;DHT22;28709;52.030;5.652;2023-07-31T14:02:14;18.30;99.90
43089;DHT22;28709;52.030;5.652;2023-07-31T14:04:40;18.30;99.90
43089;DHT22;28709;52.030;5.652;2023-07-31T14:07:06;18.30;99.90
43089;DHT22;28709;52.030;5.652;2023-07-31T14:09:32;18.30;99.90
43089;DHT22;28709;52.030;5.652;2023-07-31T14:11:58;18.30;99.90
43089;DHT22;28709;52.030;5.652;2023-07-31T14:14:23;18.30;99.90
43089;DHT22;28709;52.030;5.652;2023-07-31T14:16:49;18.20;99.90
43089;DHT22;28709;52.030;5.652;2023-07-31T14:19:14;18.20;99.90
43089;DHT22;28709;52.030;5.652;2023-07-31T14:21:40;18.20;99.90
43089;DHT22;28709;52.030;5.652;2023-07-31T14:24:06;18.20;99.90
43089;DHT22;28709;52.030;5.652;2023-07-31T14:26:31;18.20;99.90
43089;DHT22;28709;52.030;5.652;2023-07-31T14:28:57;18.20;99.90
43089;DHT22;28709;52.030;5.652;2023-07-31T14:31:23;18.10;99.90
43089;DHT22;28709;52.030;5.652;2023-07-31T14:33:49;18.10;99.90
43089;DHT22;28709;52.030;5.652;2023-07-31T14:36:14;18.10;99.90
43089;DHT22;28709;52.030;5.652;2023-07-31T14:38:40;18.10;99.90
43089;DHT22;28709;52.030;5.652;2023-07-31T14:41:06;18.10;99.90
43089;DHT22;28709;52.030;5.652;2023-07-31T14:43:31;18.00;99.90
43089;DHT22;28709;52.030;5.652;2023-07-31T14:45:57;18.00;99.90
43089;DHT22;28709;52.030;5.652;2023-07-31T14:48:25;18.10;99.90
43089;DHT22;28709;52.030;5.652;2023-07-31T14:50:51;18.00;99.90
43089;DHT22;28709;52.030;5.652;2023-07-31T14:53:17;18.00;99.90
43089;DHT22;28709;52.030;5.652;2023-07-31T14:55:42;18.00;99.90
43089;DHT22;28709;52.030;5.652;2023-07-31T14:58:08;18.10;99.90
43089;DHT22;28709;52.030;5.652;2023-07-31T15:00:36;18.10;99.90
43089;DHT22;28709;52.030;5.652;2023-07-31T15:03:03;18.10;99.90
43089;DHT22;28709;52.030;5.652;2023-07-31T15:05:28;18.10;99.90
43089;DHT22;28709;52.030;5.652;2023-07-31T15:07:54;18.10;99.90
43089;DHT22;28709;52.030;5.652;2023-07-31T15:10:20;18.10;99.90
43089;DHT22;28709;52.030;5.652;2023-07-31T15:12:45;18.10;99.90
43089;DHT22;28709;52.030;5.652;2023-07-31T15:15:11;18.10;99.90
43089;DHT22;28709;52.030;5.652;2023-07-31T15:17:37;18.10;99.90
43089;DHT22;28709;52.030;5.652;2023-07-31T15:20:03;18.00;99.90
43089;DHT22;28709;52.030;5.652;2023-07-31T15:22:29;18.10;99.90
43089;DHT22;28709;52.030;5.652;2023-07-31T15:24:56;18.10;99.90
43089;DHT22;28709;52.030;5.652;2023-07-31T15:27:22;18.10;99.90
43089;DHT22;28709;52.030;5.652;2023-07-31T15:29:49;18.10;99.90
43089;DHT22;28709;52.030;5.652;2023-07-31T15:32:15;18.10;99.90
43089;DHT22;28709;52.030;5.652;2023-07-31T15:34:43;18.10;99.90
43089;DHT22;28709;52.030;5.652;2023-07-31T15:37:09;18.10;99.90
43089;DHT22;28709;52.030;5.652;2023-07-31T15:39:34;18.10;99.90
43089;DHT22;28709;52.030;5.652;2023-07-31T15:42:00;18.00;99.90
43089;DHT22;28709;52.030;5.652;2023-07-31T15:44:25;18.00;99.90